Terminal Aerodrome Forecast
Issued by NWS Mt. Holly, NJ

Home | Current Version | Previous Version | Text Only | Print | Product List | Glossary On
Versions: 1 2 3 4 5 6 7 8 9 10 11 12 13 14 15 16 17 18 19 20 21 22 23 24 25 26 27
374
FTUS41 KPHI 180559
TAFACY
TAF
KACY 180559Z 1806/1906 17008KT P6SM BKN250
     FM181100 17007KT P6SM VCSH SCT025 OVC050
      TEMPO 1812/1815 5SM -SHRA BKN015
     FM181500 18007KT P6SM SCT015 BKN030
     FM181700 19009KT P6SM FEW030 BKN080
     FM190100 20010KT 5SM -SHRA VCTS SCT025CB BKN050 PROB30
      1902/1904 2SM TSRA BKN025CB
     FM190400 22006KT P6SM FEW030 OVC060=

USA.gov is the U.S. government's official web portal to all federal, state and local government web resources and services.